Time;durP1;ratioP1;P1;durP2;ratioP2;P2;SDS_P1;SDS_P2;PMS_P1;PMS_P2;Temp;Humidity;BMP_temperature;BMP_pressure;BME280_temperature;BME280_humidity;BME280_pressure;Samples;Min_cycle;Max_cycle;Signal;HPM_P1;HPM_P2
2023/07/10 00:01:41;;;;;;;0.00;0.00;;;;;;;24.02;49.51;97666.84;5015307;28;20049;-74
2023/07/10 00:04:15;;;;;;;0.00;0.00;;;;;;;24.19;48.67;97676.63;5029063;28;20049;-74
2023/07/10 00:06:43;;;;;;;0.00;0.00;;;;;;;24.15;49.23;97665.44;5014627;28;20049;-73
2023/07/10 00:09:11;;;;;;;0.10;0.10;;;;;;;24.06;48.17;97669.84;5021644;28;20042;-72
2023/07/10 00:11:39;;;;;;;0.00;0.00;;;;;;;24.08;48.00;97668.47;5022413;28;20505;-73
2023/07/10 00:14:07;;;;;;;0.00;0.00;;;;;;;24.27;48.92;97668.69;5020594;28;20087;-73
2023/07/10 00:16:34;;;;;;;0.00;0.00;;;;;;;24.07;47.91;97666.03;5021958;28;20042;-74
2023/07/10 00:19:07;;;;;;;0.45;0.00;;;;;;;24.06;48.23;97667.13;5021682;28;20033;-74
2023/07/10 00:21:36;;;;;;;0.00;0.00;;;;;;;24.04;47.05;97667.41;5019703;28;20087;-73
2023/07/10 00:24:04;;;;;;;0.00;0.00;;;;;;;23.97;47.83;97674.25;5010685;28;20050;-73
2023/07/10 00:26:31;;;;;;;0.10;0.10;;;;;;;23.97;46.61;97672.34;5024744;28;20504;-73
2023/07/10 00:29:03;;;;;;;0.00;0.00;;;;;;;24.08;46.86;97675.84;5021200;28;20038;-73
2023/07/10 00:31:32;;;;;;;0.00;0.00;;;;;;;24.07;46.20;97675.03;5025618;28;20056;-73
2023/07/10 00:34:02;;;;;;;0.00;0.00;;;;;;;24.03;45.46;97670.41;5019760;28;20042;-73
2023/07/10 00:36:32;;;;;;;0.28;0.05;;;;;;;24.01;45.03;97680.75;5025663;28;20444;-73
2023/07/10 00:39:05;;;;;;;0.00;0.00;;;;;;;24.06;44.42;97670.66;5021102;28;20408;-73
2023/07/10 00:41:35;;;;;;;0.00;0.00;;;;;;;24.06;44.45;97678.03;5015200;28;20046;-73
2023/07/10 00:44:03;;;;;;;0.00;0.00;;;;;;;24.00;44.47;97677.22;5022925;28;20056;-73
2023/07/10 00:46:35;;;;;;;0.10;0.10;;;;;;;23.98;44.45;97678.63;5028010;28;20041;-74
2023/07/10 00:49:07;;;;;;;0.00;0.00;;;;;;;23.94;44.59;97674.81;5022504;28;20457;-74
2023/07/10 00:51:38;;;;;;;0.00;0.00;;;;;;;24.02;44.35;97676.94;5015492;28;20058;-73
2023/07/10 00:54:14;;;;;;;0.00;0.00;;;;;;;24.08;44.11;97684.03;5014764;28;20050;-73
2023/07/10 00:56:45;;;;;;;0.00;0.00;;;;;;;24.07;43.87;97675.03;5023227;28;20059;-73
2023/07/10 00:59:21;;;;;;;0.00;0.00;;;;;;;23.97;44.31;97669.63;5030473;28;20130;-73
2023/07/10 01:02:18;;;;;;;0.00;0.00;;;;;;;24.00;43.92;97679.13;5009706;28;20052;-73
2023/07/10 01:04:48;;;;;;;0.00;0.00;;;;;;;24.07;44.33;97674.22;5021829;28;20144;-73
2023/07/10 01:07:17;;;;;;;0.00;0.00;;;;;;;24.05;44.17;97668.22;5005595;28;20042;-73
2023/07/10 01:09:50;;;;;;;0.00;0.00;;;;;;;24.00;45.20;97671.75;5018369;28;20045;-72
2023/07/10 01:12:19;;;;;;;0.10;0.10;;;;;;;23.98;44.94;97668.50;5025092;28;20571;-73
2023/07/10 01:14:46;;;;;;;0.00;0.00;;;;;;;24.02;44.36;97674.22;5026786;28;20052;-73
2023/07/10 01:17:14;;;;;;;0.10;0.10;;;;;;;24.08;45.94;97664.94;5023178;28;20049;-74
2023/07/10 01:19:45;;;;;;;0.00;0.00;;;;;;;24.09;46.76;97658.34;5014973;28;20038;-74
2023/07/10 01:22:15;;;;;;;0.00;0.00;;;;;;;24.02;47.32;97660.59;5009382;28;20042;-73
2023/07/10 01:24:43;;;;;;;0.00;0.00;;;;;;;24.00;47.62;97660.03;5016683;28;20046;-73
2023/07/10 01:27:13;;;;;;;0.00;0.00;;;;;;;23.97;46.65;97657.88;5008655;28;20050;-73
2023/07/10 01:29:44;;;;;;;0.00;0.00;;;;;;;23.90;46.94;97663.63;5025446;28;20042;-74
2023/07/10 01:32:15;;;;;;;0.00;0.00;;;;;;;23.85;46.63;97660.13;5020621;28;20516;-73
2023/07/10 01:34:46;;;;;;;0.00;0.00;;;;;;;23.81;45.89;97657.13;5012683;28;20501;-73
2023/07/10 01:37:15;;;;;;;0.00;0.00;;;;;;;23.83;46.82;97659.56;5011065;28;20050;-73
2023/07/10 01:39:44;;;;;;;0.10;0.10;;;;;;;23.81;47.66;97657.13;5006444;28;20559;-72
2023/07/10 01:42:11;;;;;;;0.00;0.00;;;;;;;23.79;47.18;97648.41;5020258;28;20045;-72
2023/07/10 01:44:41;;;;;;;0.00;0.00;;;;;;;23.80;47.91;97650.03;5030660;28;20048;-73
2023/07/10 01:47:09;;;;;;;0.10;0.10;;;;;;;23.81;49.28;97648.13;5018627;28;20363;-73
2023/07/10 01:49:41;;;;;;;0.00;0.00;;;;;;;23.73;48.96;97633.16;5027995;28;21061;-72
2023/07/10 01:52:10;;;;;;;0.00;0.00;;;;;;;23.82;49.56;97639.66;5024965;28;20259;-73
2023/07/10 01:54:39;;;;;;;0.00;0.00;;;;;;;23.59;49.24;97640.28;5017073;28;20053;-73
2023/07/10 01:57:07;;;;;;;0.00;0.00;;;;;;;23.42;50.79;97646.03;5014507;28;20400;-73
2023/07/10 01:59:35;;;;;;;0.00;0.00;;;;;;;23.41;50.63;97641.66;5015473;28;20078;-72
2023/07/10 02:02:03;;;;;;;0.10;0.10;;;;;;;23.17;52.25;97643.34;5016869;28;20520;-71
2023/07/10 02:04:31;;;;;;;0.05;0.05;;;;;;;23.08;51.76;97634.09;5020898;28;20469;-71
2023/07/10 02:07:01;;;;;;;0.08;0.08;;;;;;;23.23;51.19;97634.91;5017152;28;20059;-72
2023/07/10 02:09:30;;;;;;;0.00;0.00;;;;;;;23.22;51.56;97635.16;5018275;28;20052;-72
2023/07/10 02:11:59;;;;;;;0.00;0.00;;;;;;;23.24;51.84;97628.38;5021272;28;20052;-72
2023/07/10 02:14:26;;;;;;;0.00;0.00;;;;;;;23.03;52.59;97624.03;5018244;28;20052;-72
2023/07/10 02:16:54;;;;;;;0.65;0.00;;;;;;;22.84;49.74;97626.47;5017398;28;20041;-71
2023/07/10 02:19:22;;;;;;;0.00;0.00;;;;;;;22.74;49.12;97628.38;5023883;28;20056;-74
2023/07/10 02:21:50;;;;;;;0.10;0.10;;;;;;;22.71;47.19;97632.44;5009045;28;20138;-72
2023/07/10 02:24:17;;;;;;;0.00;0.00;;;;;;;22.81;47.16;97631.66;5024789;28;20045;-72
2023/07/10 02:26:45;;;;;;;0.00;0.00;;;;;;;22.88;46.80;97634.91;5013993;28;20061;-71
2023/07/10 02:29:14;;;;;;;0.03;0.03;;;;;;;22.95;46.04;97638.16;5009307;28;20050;-71
2023/07/10 02:31:42;;;;;;;0.00;0.00;;;;;;;23.10;47.15;97631.91;5022347;28;20567;-72
2023/07/10 02:34:10;;;;;;;0.00;0.00;;;;;;;22.99;48.37;97644.72;5029275;28;20148;-72
2023/07/10 02:36:37;;;;;;;0.00;0.00;;;;;;;22.87;49.97;97639.53;5021143;28;20049;-72
2023/07/10 02:39:05;;;;;;;0.00;0.00;;;;;;;22.70;50.47;97644.41;5011288;28;20054;-72
2023/07/10 02:41:32;;;;;;;0.00;0.00;;;;;;;22.66;50.54;97637.88;5024823;28;20507;-72
2023/07/10 02:44:00;;;;;;;0.00;0.00;;;;;;;22.61;49.82;97630.53;5024272;28;20057;-73
2023/07/10 02:46:29;;;;;;;0.00;0.00;;;;;;;22.59;50.18;97642.78;5031122;28;20052;-72
2023/07/10 02:48:57;;;;;;;0.00;0.00;;;;;;;22.56;48.41;97646.03;5017033;28;20072;-72
2023/07/10 02:51:24;;;;;;;0.00;0.00;;;;;;;22.58;47.60;97646.56;5029239;28;20041;-72
2023/07/10 02:53:52;;;;;;;0.00;0.00;;;;;;;22.58;47.25;97652.00;5019797;28;20497;-72
2023/07/10 02:56:20;;;;;;;0.00;0.00;;;;;;;22.56;47.44;97651.47;5027646;28;20063;-72
2023/07/10 02:58:49;;;;;;;0.00;0.00;;;;;;;22.50;48.25;97655.28;5025720;28;20433;-72
2023/07/10 03:01:17;;;;;;;0.00;0.00;;;;;;;22.51;48.15;97657.72;5027580;28;20552;-73
2023/07/10 03:03:46;;;;;;;0.05;0.05;;;;;;;22.51;48.03;97651.47;5029986;28;20046;-73
2023/07/10 03:06:14;;;;;;;0.00;0.00;;;;;;;22.45;47.78;97649.81;5012752;28;20043;-72
2023/07/10 03:08:43;;;;;;;0.00;0.00;;;;;;;22.53;47.49;97644.66;5015175;28;20408;-72
2023/07/10 03:11:12;;;;;;;0.10;0.10;;;;;;;22.51;47.54;97644.13;5019726;28;20045;-72
2023/07/10 03:13:40;;;;;;;0.00;0.00;;;;;;;22.47;47.79;97650.38;5024643;28;20067;-72
2023/07/10 03:16:10;;;;;;;0.00;0.00;;;;;;;22.51;48.64;97654.19;5020306;28;20063;-72
2023/07/10 03:18:38;;;;;;;0.03;0.03;;;;;;;22.38;49.75;97660.16;5021388;28;20057;-72
2023/07/10 03:21:08;;;;;;;0.10;0.10;;;;;;;22.30;49.92;97667.75;5031445;28;20404;-72
2023/07/10 03:23:35;;;;;;;0.00;0.00;;;;;;;22.27;49.99;97662.84;5015882;28;20515;-72
2023/07/10 03:26:03;;;;;;;0.00;0.00;;;;;;;22.20;49.39;97669.63;5025935;28;20049;-71
2023/07/10 03:28:36;;;;;;;0.00;0.00;;;;;;;22.16;50.33;97658.44;5015963;28;20046;-71
2023/07/10 03:31:03;;;;;;;0.00;0.00;;;;;;;22.27;49.86;97662.03;5022202;28;20041;-71
2023/07/10 03:33:31;;;;;;;0.00;0.00;;;;;;;22.29;49.26;97657.13;5030771;28;20095;-71
2023/07/10 03:35:59;;;;;;;0.00;0.00;;;;;;;22.26;50.34;97647.59;5025796;28;20045;-70
2023/07/10 03:38:28;;;;;;;0.10;0.10;;;;;;;22.26;50.73;97654.94;5019776;28;20077;-71
2023/07/10 03:40:57;;;;;;;0.00;0.00;;;;;;;22.22;51.24;97651.09;5030618;28;20041;-73
2023/07/10 03:43:25;;;;;;;0.10;0.10;;;;;;;22.28;50.95;97652.78;5020032;28;20047;-72
2023/07/10 03:45:54;;;;;;;0.10;0.10;;;;;;;22.23;50.96;97653.56;5017579;28;20034;-72
2023/07/10 03:48:21;;;;;;;0.10;0.10;;;;;;;22.38;50.60;97657.41;5024729;28;20053;-71
2023/07/10 03:50:49;;;;;;;0.00;0.00;;;;;;;22.45;50.83;97655.25;5019472;28;20053;-73
2023/07/10 03:53:16;;;;;;;0.00;0.00;;;;;;;22.39;50.78;97648.19;5028292;28;20366;-72
2023/07/10 03:55:53;;;;;;;0.00;0.00;;;;;;;22.37;50.81;97655.78;5019354;28;20136;-72
2023/07/10 03:58:22;;;;;;;0.00;0.00;;;;;;;22.36;50.49;97656.88;5027977;28;20451;-74
2023/07/10 04:00:50;;;;;;;0.00;0.00;;;;;;;22.33;50.56;97658.22;5017248;28;20046;-73
2023/07/10 04:03:21;;;;;;;0.10;0.10;;;;;;;22.24;50.92;97654.38;5027478;28;20053;-73
2023/07/10 04:05:52;;;;;;;0.00;0.00;;;;;;;22.30;49.44;97648.72;5023619;28;20037;-72
2023/07/10 04:08:20;;;;;;;0.00;0.00;;;;;;;22.32;48.97;97648.44;5026062;28;20128;-72
2023/07/10 04:10:53;;;;;;;0.05;0.05;;;;;;;22.29;48.24;97648.97;5019316;28;20400;-71
2023/07/10 04:13:21;;;;;;;0.00;0.00;;;;;;;22.39;48.02;97646.28;5018203;28;20034;-71
2023/07/10 04:15:59;;;;;;;0.20;0.20;;;;;;;22.47;47.91;97653.09;5018723;28;20072;-71
2023/07/10 04:18:29;;;;;;;0.00;0.00;;;;;;;22.57;48.51;97650.38;5026253;28;20671;-73
2023/07/10 04:20:57;;;;;;;0.10;0.10;;;;;;;22.61;47.92;97656.94;5030318;28;20041;-72
2023/07/10 04:23:25;;;;;;;0.10;0.10;;;;;;;22.62;47.90;97645.78;5028440;28;20038;-70
2023/07/10 04:25:54;;;;;;;0.00;0.00;;;;;;;22.70;46.93;97661.56;5020214;28;20048;-71
2023/07/10 04:28:21;;;;;;;0.05;0.05;;;;;;;22.72;45.90;97671.38;5014757;28;20049;-71
2023/07/10 04:30:49;;;;;;;0.03;0.03;;;;;;;22.72;45.77;97674.91;5021073;28;20586;-71
2023/07/10 04:33:17;;;;;;;0.00;0.00;;;;;;;22.77;45.91;97680.38;5024591;28;20048;-74
2023/07/10 04:35:52;;;;;;;0.10;0.10;;;;;;;22.76;45.81;97686.09;5021650;28;20042;-73
2023/07/10 04:38:19;;;;;;;0.00;0.00;;;;;;;22.77;45.37;97682.28;5018594;28;20041;-73
2023/07/10 04:40:55;;;;;;;0.00;0.00;;;;;;;22.80;45.37;97685.28;5013691;28;20488;-73
2023/07/10 04:43:23;;;;;;;0.05;0.05;;;;;;;22.85;46.66;97681.72;5018818;28;20049;-73
2023/07/10 04:45:53;;;;;;;0.00;0.00;;;;;;;22.68;48.48;97684.69;5017308;28;20034;-73
2023/07/10 04:48:20;;;;;;;0.00;0.00;;;;;;;22.56;48.51;97684.94;5019790;28;20045;-73
2023/07/10 04:50:49;;;;;;;0.00;0.00;;;;;;;22.51;48.51;97676.78;5030485;28;20048;-72
2023/07/10 04:53:18;;;;;;;0.00;0.00;;;;;;;22.50;48.40;97666.16;5023847;28;20041;-73
2023/07/10 04:55:47;;;;;;;0.00;0.00;;;;;;;22.53;48.25;97662.91;5012007;28;20049;-71
2023/07/10 04:58:16;;;;;;;0.00;0.00;;;;;;;22.61;47.71;97660.47;5021239;28;20048;-72
2023/07/10 05:00:44;;;;;;;0.03;0.03;;;;;;;22.68;47.67;97660.19;5017181;28;20077;-73
2023/07/10 05:03:12;;;;;;;0.08;0.08;;;;;;;22.79;47.25;97655.59;5021357;28;20041;-73
2023/07/10 05:05:39;;;;;;;0.00;0.00;;;;;;;22.83;46.95;97654.81;5024735;28;20045;-73
2023/07/10 05:08:07;;;;;;;0.10;0.10;;;;;;;22.88;46.78;97645.81;5026554;28;20064;-72
2023/07/10 05:10:34;;;;;;;0.10;0.10;;;;;;;22.89;46.34;97642.81;5013551;28;20424;-73
2023/07/10 05:13:02;;;;;;;0.00;0.00;;;;;;;22.96;46.49;97645.25;5021390;28;20042;-73
2023/07/10 05:15:31;;;;;;;0.00;0.00;;;;;;;23.11;45.80;97642.53;5014393;28;20069;-71
2023/07/10 05:17:58;;;;;;;0.00;0.00;;;;;;;23.13;46.10;97629.47;5025629;28;20042;-71
2023/07/10 05:20:26;;;;;;;0.03;0.03;;;;;;;23.26;45.86;97649.84;5019135;28;20134;-71
2023/07/10 05:22:53;;;;;;;0.00;0.00;;;;;;;23.23;47.07;97639.53;5015925;28;20041;-71
2023/07/10 05:25:21;;;;;;;0.00;0.00;;;;;;;23.16;47.64;97644.41;5014829;28;20050;-72
2023/07/10 05:27:49;;;;;;;0.03;0.03;;;;;;;23.23;47.60;97629.44;5016755;28;20067;-72
2023/07/10 05:30:16;;;;;;;0.00;0.00;;;;;;;23.03;47.56;97624.84;5020857;28;20389;-72
2023/07/10 05:32:45;;;;;;;0.10;0.10;;;;;;;23.15;47.41;97629.19;5016023;28;20041;-73
2023/07/10 05:35:13;;;;;;;0.10;0.10;;;;;;;23.22;47.26;97627.81;5020527;28;20129;-72
2023/07/10 05:37:40;;;;;;;0.10;0.10;;;;;;;23.39;47.48;97635.66;5017573;28;20048;-72
2023/07/10 05:40:09;;;;;;;0.03;0.03;;;;;;;23.40;47.11;97634.59;5030066;28;20049;-72
2023/07/10 05:42:36;;;;;;;0.10;0.10;;;;;;;23.52;46.63;97637.03;5022131;28;20037;-72
2023/07/10 05:45:04;;;;;;;0.10;0.05;;;;;;;23.46;46.07;97628.03;5030354;28;20041;-72
2023/07/10 05:47:32;;;;;;;0.00;0.00;;;;;;;23.55;45.80;97625.59;5026810;28;20407;-71
2023/07/10 05:50:01;;;;;;;0.00;0.00;;;;;;;23.71;45.39;97627.16;5016813;28;20111;-73
2023/07/10 05:52:28;;;;;;;0.05;0.05;;;;;;;23.76;45.63;97617.06;5022889;28;20033;-72
2023/07/10 05:54:56;;;;;;;0.03;0.03;;;;;;;23.88;45.45;97618.66;5023347;28;20052;-71
2023/07/10 05:57:24;;;;;;;0.00;0.00;;;;;;;23.99;45.61;97612.03;5011099;28;20049;-72
2023/07/10 05:59:51;;;;;;;0.03;0.03;;;;;;;24.06;45.43;97607.13;5018313;28;20061;-72
2023/07/10 06:02:19;;;;;;;0.10;0.10;;;;;;;24.18;45.52;97606.78;5020271;28;20434;-71
2023/07/10 06:04:46;;;;;;;0.10;0.00;;;;;;;24.24;44.50;97613.84;5022268;28;20050;-71
2023/07/10 06:07:15;;;;;;;0.00;0.00;;;;;;;24.31;44.37;97606.97;5016835;28;20424;-74
2023/07/10 06:09:43;;;;;;;0.10;0.10;;;;;;;24.35;44.69;97615.44;5008109;28;20055;-71
2023/07/10 06:12:10;;;;;;;0.00;0.00;;;;;;;24.36;44.74;97609.69;5026218;28;20519;-70
2023/07/10 06:14:38;;;;;;;0.00;0.00;;;;;;;24.34;44.91;97611.06;5017475;28;20441;-72
2023/07/10 06:17:06;;;;;;;0.00;0.00;;;;;;;24.33;45.24;97601.25;5030748;28;20045;-73
2023/07/10 06:19:33;;;;;;;0.03;0.00;;;;;;;24.31;45.55;97597.97;5020489;28;20046;-73
2023/07/10 06:22:06;;;;;;;0.10;0.10;;;;;;;24.36;45.63;97612.41;5008295;28;20046;-73
2023/07/10 06:24:35;;;;;;;0.00;0.00;;;;;;;24.34;45.23;97617.34;5022131;28;20046;-72
2023/07/10 06:27:03;;;;;;;0.10;0.10;;;;;;;24.40;45.75;97610.75;5014692;28;20038;-74
2023/07/10 06:29:32;;;;;;;0.10;0.10;;;;;;;24.44;45.57;97616.47;5025988;28;20475;-71
2023/07/10 06:32:00;;;;;;;0.00;0.00;;;;;;;24.43;45.03;97598.44;5012364;28;20039;-72
2023/07/10 06:34:29;;;;;;;0.10;0.10;;;;;;;24.45;45.10;97607.16;5025164;28;20048;-72
2023/07/10 06:36:57;;;;;;;0.10;0.10;;;;;;;24.49;45.48;97613.72;5022100;28;20052;-71
2023/07/10 06:39:27;;;;;;;0.10;0.10;;;;;;;24.53;45.43;97614.75;5012179;28;20090;-73
2023/07/10 06:41:56;;;;;;;0.00;0.00;;;;;;;24.59;44.89;97623.72;5021876;28;20504;-72
2023/07/10 06:44:28;;;;;;;0.03;0.03;;;;;;;24.62;44.22;97623.16;5010587;28;20038;-72
2023/07/10 06:46:56;;;;;;;0.00;0.00;;;;;;;24.64;43.89;97626.41;5024621;28;20046;-73
2023/07/10 06:49:23;;;;;;;0.00;0.00;;;;;;;24.71;43.53;97633.16;5023414;28;20057;-72
2023/07/10 06:51:51;;;;;;;0.03;0.03;;;;;;;24.75;42.77;97636.97;5025097;28;20041;-72
2023/07/10 06:54:18;;;;;;;0.00;0.00;;;;;;;24.81;43.11;97641.28;5009697;28;20560;-73
2023/07/10 06:56:46;;;;;;;0.00;0.00;;;;;;;24.78;43.11;97639.16;5014926;28;20045;-73
2023/07/10 06:59:21;;;;;;;0.00;0.00;;;;;;;24.80;43.49;97628.75;5013913;28;20497;-73
2023/07/10 07:01:49;;;;;;;0.00;0.00;;;;;;;24.79;43.09;97626.31;5002150;28;20493;-71
2023/07/10 07:04:17;;;;;;;0.00;0.00;;;;;;;24.79;43.63;97624.41;5017653;28;20113;-71
2023/07/10 07:06:45;;;;;;;0.00;0.00;;;;;;;24.80;43.63;97622.47;5003010;28;20049;-71
2023/07/10 07:09:15;;;;;;;0.00;0.00;;;;;;;24.81;43.28;97605.78;5024143;28;20052;-73
2023/07/10 07:11:43;;;;;;;0.00;0.00;;;;;;;24.83;43.65;97610.97;5014109;28;20076;-72
2023/07/10 07:14:10;;;;;;;0.00;0.00;;;;;;;24.90;43.75;97618.84;5018770;28;20045;-71
2023/07/10 07:16:39;;;;;;;0.00;0.00;;;;;;;25.02;43.03;97627.53;5017841;28;20042;-71
2023/07/10 07:19:07;;;;;;;0.00;0.00;;;;;;;25.09;42.87;97625.25;5023113;28;20042;-72
2023/07/10 07:21:39;;;;;;;;;;;;;;;25.20;42.94;97624.88;5021085;28;20124;-72
2023/07/10 07:24:07;;;;;;;0.10;0.10;;;;;;;25.47;42.74;97645.38;5023087;28;19921;-73
2023/07/10 07:26:34;;;;;;;0.05;0.00;;;;;;;25.76;42.19;97637.97;5022090;28;20045;-72
2023/07/10 07:29:02;;;;;;;0.00;0.00;;;;;;;25.96;42.02;97634.16;5020516;28;20499;-72
2023/07/10 07:31:29;;;;;;;0.00;0.00;;;;;;;26.20;41.57;97631.41;5020243;28;20049;-73
2023/07/10 07:33:58;;;;;;;0.00;0.00;;;;;;;26.46;40.70;97629.97;5026811;28;20050;-73
2023/07/10 07:36:26;;;;;;;0.00;0.00;;;;;;;26.66;40.58;97637.09;5027568;28;20527;-72
2023/07/10 07:38:53;;;;;;;0.00;0.00;;;;;;;26.88;39.80;97636.47;5017241;28;20128;-73
2023/07/10 07:41:21;;;;;;;0.03;0.03;;;;;;;27.09;39.55;97648.75;5023664;28;20060;-72
2023/07/10 07:43:49;;;;;;;0.00;0.00;;;;;;;27.26;39.96;97635.28;5017553;28;20034;-72
2023/07/10 07:46:16;;;;;;;0.10;0.03;;;;;;;27.48;39.67;97639.28;5029033;28;20049;-73
2023/07/10 07:48:44;;;;;;;0.00;0.00;;;;;;;27.68;39.34;97644.41;5020816;28;20405;-72
2023/07/10 07:51:13;;;;;;;0.03;0.03;;;;;;;27.82;39.19;97644.44;5024557;28;20049;-73
2023/07/10 07:53:41;;;;;;;0.00;0.00;;;;;;;27.99;39.10;97639.13;5022597;28;20050;-73
2023/07/10 07:56:09;;;;;;;0.00;0.00;;;;;;;28.18;39.04;97633.53;5011062;28;20831;-72
2023/07/10 07:58:37;;;;;;;0.03;0.03;;;;;;;28.31;38.77;97624.47;5028390;28;20056;-71
2023/07/10 08:01:05;;;;;;;0.00;0.00;;;;;;;28.49;38.77;97632.56;5012150;28;20054;-73
2023/07/10 08:03:33;;;;;;;0.00;0.00;;;;;;;28.73;38.52;97629.53;5053367;22;20136;-74
2023/07/10 08:06:01;;;;;;;0.00;0.00;;;;;;;28.97;37.96;97620.97;5029259;28;20045;-74
2023/07/10 08:08:30;;;;;;;0.03;0.03;;;;;;;29.10;36.76;97614.63;5030739;28;20128;-74
2023/07/10 08:10:57;;;;;;;0.10;0.10;;;;;;;29.31;36.55;97616.81;5030902;28;20080;-74
2023/07/10 08:13:25;;;;;;;0.03;0.03;;;;;;;29.47;35.99;97607.09;5026288;28;20034;-74
2023/07/10 08:15:53;;;;;;;0.00;0.00;;;;;;;29.47;35.88;97607.09;5026366;28;20130;-74
2023/07/10 08:18:20;;;;;;;0.00;0.00;;;;;;;29.61;35.24;97602.28;5024441;28;20050;-74
2023/07/10 08:20:48;;;;;;;0.00;0.00;;;;;;;29.73;35.16;97609.94;5025147;28;20045;-75
2023/07/10 08:23:17;;;;;;;0.00;0.00;;;;;;;29.89;35.15;97606.44;5023174;28;20404;-74
2023/07/10 08:25:46;;;;;;;0.00;0.00;;;;;;;30.10;34.30;97605.88;5013392;28;20048;-74
2023/07/10 08:28:13;;;;;;;0.00;0.00;;;;;;;30.29;34.34;97611.91;5023648;28;20042;-74
2023/07/10 08:30:41;;;;;;;0.00;0.00;;;;;;;30.16;33.97;97607.34;5024724;28;20358;-74
2023/07/10 08:33:10;;;;;;;0.05;0.03;;;;;;;30.16;34.17;97604.56;5031208;28;20041;-74
2023/07/10 08:35:38;;;;;;;0.00;0.00;;;;;;;30.13;34.11;97603.28;5022907;28;20084;-74
2023/07/10 08:38:06;;;;;;;0.03;0.03;;;;;;;30.05;33.94;97604.06;5025067;28;20045;-74
2023/07/10 08:40:35;;;;;;;0.00;0.00;;;;;;;29.98;33.89;97609.25;5022274;28;20072;-75
2023/07/10 08:43:26;;;;;;;0.00;0.00;;;;;;;29.91;34.43;97612.41;5024794;28;20505;-74
2023/07/10 08:46:01;;;;;;;0.00;0.00;;;;;;;29.94;34.35;97616.47;5019005;28;20041;-74
2023/07/10 08:48:32;;;;;;;0.00;0.00;;;;;;;29.95;34.27;97620.88;5023155;28;20050;-76
2023/07/10 08:51:14;;;;;;;0.00;0.00;;;;;;;29.97;33.78;97628.84;5021465;28;20056;-76
2023/07/10 08:53:45;;;;;;;0.00;0.00;;;;;;;29.88;34.05;97626.84;5018953;28;20120;-75
2023/07/10 08:56:21;;;;;;;0.00;0.00;;;;;;;30.10;33.66;97614.94;5004397;28;20049;-75
2023/07/10 08:58:50;;;;;;;0.00;0.00;;;;;;;30.17;33.60;97634.56;5018908;28;20489;-76
2023/07/10 09:01:25;;;;;;;0.10;0.05;;;;;;;30.21;33.61;97634.75;5023748;28;20050;-78
2023/07/10 09:03:55;;;;;;;0.00;0.00;;;;;;;30.40;33.66;97634.44;5028154;28;20057;-76
2023/07/10 09:06:33;;;;;;;0.00;0.00;;;;;;;30.33;33.39;97626.63;5026472;28;20042;-76
2023/07/10 09:09:01;;;;;;;0.00;0.00;;;;;;;30.54;33.38;97632.34;5027113;28;20041;-76
2023/07/10 09:11:29;;;;;;;0.00;0.00;;;;;;;30.49;33.28;97624.22;5021762;28;20050;-75
2023/07/10 09:14:01;;;;;;;0.08;0.03;;;;;;;30.59;33.13;97638.53;5024459;28;20083;-75
2023/07/10 09:16:29;;;;;;;0.00;0.00;;;;;;;30.64;33.38;97637.56;5029624;28;20577;-76
2023/07/10 09:19:03;;;;;;;0.00;0.00;;;;;;;30.68;32.93;97646.00;5019853;28;20042;-76
2023/07/10 09:21:33;;;;;;;0.00;0.00;;;;;;;30.74;32.59;97651.00;5025154;28;20092;-75
2023/07/10 09:24:01;;;;;;;0.03;0.03;;;;;;;30.58;33.03;97642.44;5019600;28;20046;-75
2023/07/10 09:26:30;;;;;;;0.03;0.03;;;;;;;30.41;33.29;97641.56;5022496;28;20080;-75
2023/07/10 09:29:07;;;;;;;0.00;0.00;;;;;;;30.51;33.24;97646.78;5019437;28;20041;-75
2023/07/10 09:31:40;;;;;;;0.00;0.00;;;;;;;30.42;33.57;97648.72;5022309;28;20465;-76
2023/07/10 09:34:10;;;;;;;0.00;0.00;;;;;;;30.69;33.45;97640.16;5027990;28;20092;-75
2023/07/10 09:36:37;;;;;;;0.10;0.03;;;;;;;30.97;32.97;97644.19;5029736;28;20534;-76
2023/07/10 09:39:06;;;;;;;0.00;0.00;;;;;;;30.61;33.80;97652.81;5020534;28;20060;-76
2023/07/10 09:41:38;;;;;;;0.03;0.03;;;;;;;30.52;33.81;97648.41;5028026;28;20060;-75
2023/07/10 09:44:17;;;;;;;0.00;0.00;;;;;;;30.45;34.22;97659.88;5015680;28;20042;-75
2023/07/10 09:46:45;;;;;;;0.00;0.00;;;;;;;30.51;34.19;97650.34;5016299;28;20045;-75
2023/07/10 09:49:18;;;;;;;0.00;0.00;;;;;;;30.42;34.26;97646.75;5016953;28;20045;-76
2023/07/10 09:51:55;;;;;;;0.00;0.00;;;;;;;30.33;34.43;97650.63;5016759;28;20054;-75
2023/07/10 09:54:23;;;;;;;0.00;0.00;;;;;;;30.03;35.28;97652.31;5018896;28;20045;-76
2023/07/10 09:56:53;;;;;;;0.00;0.00;;;;;;;30.06;35.25;97654.44;5023702;28;20043;-76
2023/07/10 09:59:24;;;;;;;0.00;0.00;;;;;;;30.23;35.21;97651.72;5016807;28;20535;-76
2023/07/10 10:01:53;;;;;;;0.00;0.00;;;;;;;30.66;34.11;97649.06;5023263;28;20049;-75
2023/07/10 10:04:23;;;;;;;0.03;0.03;;;;;;;30.71;34.11;97646.16;5023677;28;20046;-77
2023/07/10 10:06:56;;;;;;;0.10;0.10;;;;;;;30.81;33.87;97651.34;5023638;28;20045;-76
2023/07/10 10:09:25;;;;;;;0.10;0.10;;;;;;;30.88;34.23;97640.63;5022883;28;20042;-75
2023/07/10 10:11:55;;;;;;;0.00;0.00;;;;;;;31.21;34.04;97629.94;5017468;28;20126;-75
2023/07/10 10:14:35;;;;;;;0.00;0.00;;;;;;;31.54;33.07;97632.09;5023082;28;20127;-76
2023/07/10 10:17:04;;;;;;;0.00;0.00;;;;;;;31.80;33.01;97645.84;5020923;28;20048;-75
2023/07/10 10:19:35;;;;;;;0.00;0.00;;;;;;;31.73;32.56;97633.38;5022793;28;20404;-75
2023/07/10 10:22:09;;;;;;;0.00;0.00;;;;;;;31.55;32.81;97640.06;5016806;28;20045;-75
2023/07/10 10:24:36;;;;;;;0.00;0.00;;;;;;;31.42;33.30;97635.56;5026655;28;20063;-75
2023/07/10 10:27:10;;;;;;;0.00;0.00;;;;;;;31.44;33.37;97633.28;5016951;28;20045;-76
2023/07/10 10:29:51;;;;;;;0.00;0.00;;;;;;;31.66;33.08;97635.84;5027833;28;20077;-75
2023/07/10 10:32:25;;;;;;;0.00;0.00;;;;;;;31.48;33.35;97631.47;5019067;28;20493;-75
2023/07/10 10:34:57;;;;;;;0.00;0.00;;;;;;;31.92;32.92;97624.66;5026430;28;20038;-76
2023/07/10 10:37:34;;;;;;;0.00;0.00;;;;;;;32.24;32.29;97619.63;5017845;28;20053;-76
2023/07/10 10:40:04;;;;;;;0.00;0.00;;;;;;;32.16;32.25;97618.53;5018564;28;20466;-76
2023/07/10 10:42:47;;;;;;;0.00;0.00;;;;;;;32.19;32.47;97615.09;5020261;28;20050;-76
2023/07/10 10:45:23;;;;;;;0.00;0.00;;;;;;;32.38;32.05;97618.25;5019018;28;20053;-75
2023/07/10 10:47:57;;;;;;;0.00;0.00;;;;;;;32.10;32.50;97615.13;5017811;28;20045;-76
2023/07/10 10:50:37;;;;;;;0.00;0.00;;;;;;;32.59;31.95;97620.22;5023643;28;20079;-76
2023/07/10 10:53:15;;;;;;;0.00;0.00;;;;;;;32.78;31.94;97626.09;5027068;28;20033;-75
2023/07/10 10:55:48;;;;;;;0.00;0.00;;;;;;;32.72;31.85;97644.03;5021463;28;20125;-76
2023/07/10 10:58:22;;;;;;;0.00;0.00;;;;;;;32.78;32.03;97626.91;5029974;28;20504;-75
2023/07/10 11:01:00;;;;;;;0.00;0.00;;;;;;;32.67;31.93;97627.63;5021493;28;20076;-75
2023/07/10 11:03:33;;;;;;;0.00;0.00;;;;;;;32.86;32.35;97630.75;5030134;28;20112;-76
2023/07/10 11:06:08;;;;;;;0.00;0.00;;;;;;;32.90;32.14;97628.94;5023457;28;20524;-75
2023/07/10 11:08:41;;;;;;;0.00;0.00;;;;;;;32.85;32.36;97633.84;5031583;28;20095;-75
2023/07/10 11:11:15;;;;;;;0.00;0.00;;;;;;;32.38;32.64;97637.59;5016837;28;20251;-75
2023/07/10 11:13:43;;;;;;;0.00;0.00;;;;;;;32.25;33.06;97632.31;5022996;28;20042;-75
2023/07/10 11:16:12;;;;;;;0.00;0.00;;;;;;;32.39;32.87;97630.91;5022177;28;20045;-76
2023/07/10 11:18:39;;;;;;;0.00;0.00;;;;;;;32.15;33.16;97630.72;5031936;28;20045;-76
2023/07/10 11:21:07;;;;;;;0.00;0.00;;;;;;;32.25;33.06;97630.34;5024721;28;20501;-75
2023/07/10 11:23:37;;;;;;;0.00;0.00;;;;;;;32.20;33.32;97630.53;5027507;28;20049;-75
2023/07/10 11:26:10;;;;;;;0.08;0.00;;;;;;;31.77;34.00;97624.44;5025846;28;20041;-76
2023/07/10 11:28:48;;;;;;;0.00;0.00;;;;;;;31.64;34.59;97638.13;5026591;28;20055;-76
2023/07/10 11:31:39;;;;;;;0.00;0.00;;;;;;;31.87;34.72;97640.63;5032274;28;20037;-76
2023/07/10 11:34:35;;;;;;;0.00;0.00;;;;;;;31.82;35.44;97630.56;5024532;28;20128;-75
2023/07/10 11:37:03;;;;;;;0.00;0.00;;;;;;;31.68;36.39;97636.28;5023011;28;20045;-75
2023/07/10 11:39:33;;;;;;;0.00;0.00;;;;;;;31.74;36.33;97642.47;5025831;28;20056;-76
2023/07/10 11:42:16;;;;;;;0.00;0.00;;;;;;;31.68;36.54;97639.06;5026509;28;20046;-75
2023/07/10 11:44:46;;;;;;;0.00;0.00;;;;;;;31.41;37.01;97650.50;5018578;28;20464;-75
2023/07/10 11:47:25;;;;;;;0.00;0.00;;;;;;;30.81;38.13;97656.06;5015402;28;20030;-75